sensor_id;sensor_type;location;lat;lon;timestamp;pressure;altitude;pressure_sealevel;temperature;humidity
43119;BME280;28729;49.838;8.650;2023-02-13T00:01:51;101884.94;;;4.86;100.00
43119;BME280;28729;49.838;8.650;2023-02-13T00:05:53;101871.91;;;4.80;100.00
43119;BME280;28729;49.838;8.650;2023-02-13T00:09:54;101877.31;;;4.72;100.00
43119;BME280;28729;49.838;8.650;2023-02-13T00:13:57;101873.03;;;4.69;100.00
43119;BME280;28729;49.838;8.650;2023-02-13T00:17:59;101869.06;;;4.64;100.00
43119;BME280;28729;49.838;8.650;2023-02-13T00:22:00;101871.59;;;4.57;100.00
43119;BME280;28729;49.838;8.650;2023-02-13T00:26:09;101875.81;;;4.51;100.00
43119;BME280;28729;49.838;8.650;2023-02-13T00:30:12;101869.28;;;4.44;100.00
43119;BME280;28729;49.838;8.650;2023-02-13T00:34:14;101870.59;;;4.40;100.00
43119;BME280;28729;49.838;8.650;2023-02-13T00:38:16;101872.97;;;4.35;100.00
43119;BME280;28729;49.838;8.650;2023-02-13T00:42:19;101873.63;;;4.29;100.00
43119;BME280;28729;49.838;8.650;2023-02-13T00:46:24;101875.25;;;4.22;100.00
43119;BME280;28729;49.838;8.650;2023-02-13T00:50:27;101873.16;;;4.16;100.00
43119;BME280;28729;49.838;8.650;2023-02-13T00:54:28;101866.63;;;4.08;100.00
43119;BME280;28729;49.838;8.650;2023-02-13T00:58:30;101871.53;;;4.05;100.00
43119;BME280;28729;49.838;8.650;2023-02-13T01:02:32;101871.16;;;4.00;100.00
43119;BME280;28729;49.838;8.650;2023-02-13T01:06:36;101872.47;;;3.96;100.00
43119;BME280;28729;49.838;8.650;2023-02-13T01:10:38;101869.91;;;3.94;100.00
43119;BME280;28729;49.838;8.650;2023-02-13T01:14:44;101871.22;;;3.90;100.00
43119;BME280;28729;49.838;8.650;2023-02-13T01:18:46;101871.53;;;3.87;100.00
43119;BME280;28729;49.838;8.650;2023-02-13T01:22:47;101870.84;;;3.85;100.00
43119;BME280;28729;49.838;8.650;2023-02-13T01:26:53;101867.56;;;3.81;100.00
43119;BME280;28729;49.838;8.650;2023-02-13T01:30:56;101872.16;;;3.81;100.00
43119;BME280;28729;49.838;8.650;2023-02-13T01:34:58;101875.34;;;3.76;100.00
43119;BME280;28729;49.838;8.650;2023-02-13T01:39:00;101870.19;;;3.73;100.00
43119;BME280;28729;49.838;8.650;2023-02-13T01:43:02;101874.81;;;3.73;100.00
43119;BME280;28729;49.838;8.650;2023-02-13T01:47:03;101860.63;;;3.69;100.00
43119;BME280;28729;49.838;8.650;2023-02-13T01:51:10;101870.50;;;3.70;100.00
43119;BME280;28729;49.838;8.650;2023-02-13T01:55:13;101866.22;;;3.68;100.00
43119;BME280;28729;49.838;8.650;2023-02-13T01:59:17;101859.38;;;3.63;100.00
43119;BME280;28729;49.838;8.650;2023-02-13T02:03:25;101854.22;;;3.60;100.00
43119;BME280;28729;49.838;8.650;2023-02-13T02:07:31;101860.97;;;3.56;100.00
43119;BME280;28729;49.838;8.650;2023-02-13T02:11:54;101860.31;;;3.54;100.00
43119;BME280;28729;49.838;8.650;2023-02-13T02:15:58;101867.75;;;3.52;100.00
43119;BME280;28729;49.838;8.650;2023-02-13T02:20:22;101865.88;;;3.53;100.00
43119;BME280;28729;49.838;8.650;2023-02-13T02:29:16;101856.00;;;3.52;100.00
43119;BME280;28729;49.838;8.650;2023-02-13T02:37:55;101849.72;;;3.51;100.00
43119;BME280;28729;49.838;8.650;2023-02-13T02:46:31;101838.22;;;3.48;100.00
43119;BME280;28729;49.838;8.650;2023-02-13T02:59:30;101835.38;;;3.49;100.00
43119;BME280;28729;49.838;8.650;2023-02-13T03:03:51;101839.69;;;3.42;100.00
43119;BME280;28729;49.838;8.650;2023-02-13T03:08:15;101847.94;;;3.32;100.00
43119;BME280;28729;49.838;8.650;2023-02-13T03:12:42;101849.72;;;3.24;100.00
43119;BME280;28729;49.838;8.650;2023-02-13T03:17:05;101850.50;;;3.16;100.00
43119;BME280;28729;49.838;8.650;2023-02-13T03:30:44;101844.44;;;2.94;100.00
43119;BME280;28729;49.838;8.650;2023-02-13T03:35:01;101852.19;;;2.89;100.00
43119;BME280;28729;49.838;8.650;2023-02-13T03:39:50;101860.66;;;2.86;100.00
43119;BME280;28729;49.838;8.650;2023-02-13T03:48:18;101855.09;;;2.78;100.00
43119;BME280;28729;49.838;8.650;2023-02-13T03:52:54;101851.66;;;2.76;100.00
43119;BME280;28729;49.838;8.650;2023-02-13T03:56:57;101845.53;;;2.74;100.00
43119;BME280;28729;49.838;8.650;2023-02-13T04:01:19;101854.38;;;2.76;100.00
43119;BME280;28729;49.838;8.650;2023-02-13T04:05:25;101852.50;;;2.77;100.00
43119;BME280;28729;49.838;8.650;2023-02-13T04:09:30;101852.50;;;2.77;100.00
43119;BME280;28729;49.838;8.650;2023-02-13T04:13:34;101854.78;;;2.81;100.00
43119;BME280;28729;49.838;8.650;2023-02-13T04:17:40;101860.91;;;2.93;100.00
43119;BME280;28729;49.838;8.650;2023-02-13T04:21:48;101863.44;;;3.04;100.00
43119;BME280;28729;49.838;8.650;2023-02-13T04:25:53;101856.47;;;3.19;100.00
43119;BME280;28729;49.838;8.650;2023-02-13T04:29:56;101860.72;;;3.32;100.00
43119;BME280;28729;49.838;8.650;2023-02-13T04:33:57;101856.94;;;3.42;100.00
43119;BME280;28729;49.838;8.650;2023-02-13T04:37:59;101859.72;;;3.51;100.00
43119;BME280;28729;49.838;8.650;2023-02-13T04:42:01;101848.50;;;3.54;100.00
43119;BME280;28729;49.838;8.650;2023-02-13T04:46:03;101853.66;;;3.57;100.00
43119;BME280;28729;49.838;8.650;2023-02-13T04:50:05;101846.19;;;3.59;100.00
43119;BME280;28729;49.838;8.650;2023-02-13T04:54:07;101843.31;;;3.60;100.00
43119;BME280;28729;49.838;8.650;2023-02-13T04:58:09;101843.00;;;3.63;100.00
43119;BME280;28729;49.838;8.650;2023-02-13T05:02:10;101839.25;;;3.64;100.00
43119;BME280;28729;49.838;8.650;2023-02-13T05:06:12;101837.56;;;3.63;100.00
43119;BME280;28729;49.838;8.650;2023-02-13T05:10:14;101839.44;;;3.63;100.00
43119;BME280;28729;49.838;8.650;2023-02-13T05:14:16;101843.00;;;3.63;100.00
43119;BME280;28729;49.838;8.650;2023-02-13T05:18:18;101837.56;;;3.63;100.00
43119;BME280;28729;49.838;8.650;2023-02-13T05:22:20;101839.25;;;3.64;100.00
43119;BME280;28729;49.838;8.650;2023-02-13T05:26:40;101835.81;;;3.62;100.00
43119;BME280;28729;49.838;8.650;2023-02-13T05:30:42;101835.81;;;3.62;100.00
43119;BME280;28729;49.838;8.650;2023-02-13T05:34:44;101834.84;;;3.63;100.00
43119;BME280;28729;49.838;8.650;2023-02-13T05:38:45;101840.13;;;3.65;100.00
43119;BME280;28729;49.838;8.650;2023-02-13T05:42:47;101838.41;;;3.64;100.00
43119;BME280;28729;49.838;8.650;2023-02-13T05:46:48;101832.09;;;3.63;100.00
43119;BME280;28729;49.838;8.650;2023-02-13T05:50:50;101831.41;;;3.61;100.00
43119;BME280;28729;49.838;8.650;2023-02-13T05:54:51;101836.13;;;3.59;100.00
43119;BME280;28729;49.838;8.650;2023-02-13T05:58:54;101833.91;;;3.55;100.00
43119;BME280;28729;49.838;8.650;2023-02-13T06:02:56;101832.03;;;3.55;100.00
43119;BME280;28729;49.838;8.650;2023-02-13T06:06:58;101833.72;;;3.56;100.00
43119;BME280;28729;49.838;8.650;2023-02-13T06:11:00;101825.72;;;3.55;100.00
43119;BME280;28729;49.838;8.650;2023-02-13T06:15:02;101832.88;;;3.56;100.00
43119;BME280;28729;49.838;8.650;2023-02-13T06:19:04;101830.31;;;3.54;100.00
43119;BME280;28729;49.838;8.650;2023-02-13T06:23:06;101828.59;;;3.53;100.00
43119;BME280;28729;49.838;8.650;2023-02-13T06:27:08;101837.59;;;3.54;100.00
43119;BME280;28729;49.838;8.650;2023-02-13T06:31:09;101841.91;;;3.56;100.00
43119;BME280;28729;49.838;8.650;2023-02-13T06:35:11;101841.91;;;3.56;100.00
43119;BME280;28729;49.838;8.650;2023-02-13T06:39:13;101842.06;;;3.55;100.00
43119;BME280;28729;49.838;8.650;2023-02-13T06:43:16;101836.75;;;3.53;100.00
43119;BME280;28729;49.838;8.650;2023-02-13T06:47:18;101837.47;;;3.55;100.00
43119;BME280;28729;49.838;8.650;2023-02-13T06:51:19;101844.63;;;3.56;100.00
43119;BME280;28729;49.838;8.650;2023-02-13T06:55:21;101843.63;;;3.57;100.00
43119;BME280;28729;49.838;8.650;2023-02-13T06:59:23;101848.19;;;3.57;100.00
43119;BME280;28729;49.838;8.650;2023-02-13T07:03:25;101850.78;;;3.58;100.00
43119;BME280;28729;49.838;8.650;2023-02-13T07:07:33;101851.66;;;3.59;100.00
43119;BME280;28729;49.838;8.650;2023-02-13T07:11:36;101854.53;;;3.57;100.00
43119;BME280;28729;49.838;8.650;2023-02-13T07:15:39;101857.09;;;3.59;100.00
43119;BME280;28729;49.838;8.650;2023-02-13T07:19:41;101847.75;;;3.61;100.00
43119;BME280;28729;49.838;8.650;2023-02-13T07:23:43;101853.91;;;3.63;100.00
43119;BME280;28729;49.838;8.650;2023-02-13T07:27:44;101858.03;;;3.68;100.00
43119;BME280;28729;49.838;8.650;2023-02-13T07:31:46;101863.19;;;3.71;100.00
43119;BME280;28729;49.838;8.650;2023-02-13T07:35:50;101863.59;;;3.76;100.00
43119;BME280;28729;49.838;8.650;2023-02-13T07:39:52;101867.56;;;3.81;100.00
43119;BME280;28729;49.838;8.650;2023-02-13T07:43:53;101855.84;;;3.89;100.00
43119;BME280;28729;49.838;8.650;2023-02-13T07:47:55;101853.38;;;3.96;100.00
43119;BME280;28729;49.838;8.650;2023-02-13T07:51:57;101855.31;;;4.03;100.00
43119;BME280;28729;49.838;8.650;2023-02-13T07:56:06;101855.22;;;4.13;100.00
43119;BME280;28729;49.838;8.650;2023-02-13T08:00:09;101858.56;;;4.25;100.00
43119;BME280;28729;49.838;8.650;2023-02-13T08:04:11;101870.94;;;4.37;100.00
43119;BME280;28729;49.838;8.650;2023-02-13T08:08:14;101864.91;;;4.51;100.00
43119;BME280;28729;49.838;8.650;2023-02-13T08:12:17;101866.72;;;4.69;100.00
43119;BME280;28729;49.838;8.650;2023-02-13T08:16:19;101868.69;;;4.85;100.00
43119;BME280;28729;49.838;8.650;2023-02-13T08:20:20;101872.22;;;5.03;100.00
43119;BME280;28729;49.838;8.650;2023-02-13T08:24:22;101864.78;;;5.21;100.00
43119;BME280;28729;49.838;8.650;2023-02-13T08:28:25;101864.50;;;5.41;100.00
43119;BME280;28729;49.838;8.650;2023-02-13T08:32:27;101868.84;;;5.60;100.00
43119;BME280;28729;49.838;8.650;2023-02-13T08:36:30;101872.47;;;5.85;100.00
43119;BME280;28729;49.838;8.650;2023-02-13T08:40:32;101874.06;;;6.04;100.00
43119;BME280;28729;49.838;8.650;2023-02-13T08:44:34;101872.06;;;6.22;100.00
43119;BME280;28729;49.838;8.650;2023-02-13T08:48:38;101875.47;;;6.41;100.00
43119;BME280;28729;49.838;8.650;2023-02-13T08:52:41;101878.50;;;6.62;100.00
43119;BME280;28729;49.838;8.650;2023-02-13T08:56:42;101874.19;;;6.84;100.00
43119;BME280;28729;49.838;8.650;2023-02-13T09:00:45;101879.13;;;7.05;100.00
43119;BME280;28729;49.838;8.650;2023-02-13T09:04:47;101882.13;;;7.26;100.00
43119;BME280;28729;49.838;8.650;2023-02-13T09:08:49;101874.31;;;7.46;100.00
43119;BME280;28729;49.838;8.650;2023-02-13T09:12:51;101876.78;;;7.64;100.00
43119;BME280;28729;49.838;8.650;2023-02-13T09:16:53;101874.63;;;7.83;100.00
43119;BME280;28729;49.838;8.650;2023-02-13T09:21:03;101874.34;;;8.01;100.00
43119;BME280;28729;49.838;8.650;2023-02-13T09:25:06;101867.50;;;8.19;100.00
43119;BME280;28729;49.838;8.650;2023-02-13T09:29:08;101863.25;;;8.32;100.00
43119;BME280;28729;49.838;8.650;2023-02-13T09:33:10;101857.41;;;8.35;100.00
43119;BME280;28729;49.838;8.650;2023-02-13T09:37:12;101864.88;;;8.49;100.00
43119;BME280;28729;49.838;8.650;2023-02-13T09:41:19;101863.66;;;8.66;100.00
43119;BME280;28729;49.838;8.650;2023-02-13T09:45:21;101869.75;;;8.77;100.00
43119;BME280;28729;49.838;8.650;2023-02-13T09:49:26;101874.09;;;8.86;97.48
43119;BME280;28729;49.838;8.650;2023-02-13T09:53:30;101875.25;;;9.06;97.65
43119;BME280;28729;49.838;8.650;2023-02-13T09:57:41;101878.00;;;9.21;96.63
43119;BME280;28729;49.838;8.650;2023-02-13T10:01:47;101879.44;;;9.32;93.85
43119;BME280;28729;49.838;8.650;2023-02-13T10:10:26;101875.97;;;9.59;93.48
43119;BME280;28729;49.838;8.650;2023-02-13T10:14:51;101880.88;;;9.79;92.39
43119;BME280;28729;49.838;8.650;2023-02-13T10:18:59;101880.56;;;9.89;90.76
43119;BME280;28729;49.838;8.650;2023-02-13T10:23:27;101869.41;;;9.97;89.94
43119;BME280;28729;49.838;8.650;2023-02-13T10:27:38;101870.94;;;9.99;85.85
43119;BME280;28729;49.838;8.650;2023-02-13T10:31:44;101873.16;;;10.11;87.77
43119;BME280;28729;49.838;8.650;2023-02-13T10:36:14;101865.66;;;10.26;86.99
43119;BME280;28729;49.838;8.650;2023-02-13T10:40:17;101860.25;;;10.33;82.63
43119;BME280;28729;49.838;8.650;2023-02-13T10:48:54;101859.63;;;10.59;81.77
43119;BME280;28729;49.838;8.650;2023-02-13T10:53:26;101854.88;;;10.74;82.78
43119;BME280;28729;49.838;8.650;2023-02-13T11:02:26;101846.56;;;11.02;80.24
43119;BME280;28729;49.838;8.650;2023-02-13T11:06:28;101843.25;;;11.20;78.75
43119;BME280;28729;49.838;8.650;2023-02-13T11:10:30;101838.88;;;11.39;78.23
43119;BME280;28729;49.838;8.650;2023-02-13T11:14:32;101838.09;;;11.45;76.71
43119;BME280;28729;49.838;8.650;2023-02-13T11:18:39;101832.16;;;11.55;75.78
43119;BME280;28729;49.838;8.650;2023-02-13T11:22:42;101836.00;;;11.60;74.97
43119;BME280;28729;49.838;8.650;2023-02-13T11:26:48;101819.44;;;11.60;72.67
43119;BME280;28729;49.838;8.650;2023-02-13T11:30:50;101827.09;;;11.72;71.58
43119;BME280;28729;49.838;8.650;2023-02-13T11:34:52;101816.94;;;11.72;70.17
43119;BME280;28729;49.838;8.650;2023-02-13T11:39:05;101817.34;;;11.76;69.97
43119;BME280;28729;49.838;8.650;2023-02-13T11:43:16;101814.22;;;11.85;67.95
43119;BME280;28729;49.838;8.650;2023-02-13T11:47:34;101815.50;;;11.90;66.47
43119;BME280;28729;49.838;8.650;2023-02-13T11:51:49;101811.91;;;12.09;68.18
43119;BME280;28729;49.838;8.650;2023-02-13T11:56:15;101804.28;;;12.44;65.83
43119;BME280;28729;49.838;8.650;2023-02-13T12:00:30;101803.16;;;12.85;67.65
43119;BME280;28729;49.838;8.650;2023-02-13T12:04:34;101798.56;;;13.24;67.74
43119;BME280;28729;49.838;8.650;2023-02-13T12:08:37;101804.06;;;13.76;66.40
43119;BME280;28729;49.838;8.650;2023-02-13T12:12:44;101795.66;;;14.21;62.72
43119;BME280;28729;49.838;8.650;2023-02-13T12:16:50;101797.13;;;14.73;59.81
43119;BME280;28729;49.838;8.650;2023-02-13T12:21:10;101794.72;;;15.50;59.78
43119;BME280;28729;49.838;8.650;2023-02-13T12:25:33;101785.16;;;16.07;55.27
43119;BME280;28729;49.838;8.650;2023-02-13T12:39:16;101781.31;;;16.31;53.03
43119;BME280;28729;49.838;8.650;2023-02-13T12:47:38;101769.16;;;17.31;50.77
43119;BME280;28729;49.838;8.650;2023-02-13T12:56:09;101763.09;;;18.26;46.94
43119;BME280;28729;49.838;8.650;2023-02-13T13:04:57;101751.41;;;18.79;43.69
43119;BME280;28729;49.838;8.650;2023-02-13T13:09:27;101747.31;;;18.87;43.06
43119;BME280;28729;49.838;8.650;2023-02-13T13:13:51;101741.50;;;19.10;43.08
43119;BME280;28729;49.838;8.650;2023-02-13T13:18:25;101739.47;;;19.06;42.57
43119;BME280;28729;49.838;8.650;2023-02-13T13:22:43;101743.00;;;18.07;44.34
43119;BME280;28729;49.838;8.650;2023-02-13T13:26:49;101734.38;;;16.58;45.41
43119;BME280;28729;49.838;8.650;2023-02-13T13:30:56;101739.50;;;15.72;47.92
43119;BME280;28729;49.838;8.650;2023-02-13T13:34:59;101731.22;;;15.06;49.58
43119;BME280;28729;49.838;8.650;2023-02-13T13:52:34;101719.28;;;14.00;54.19
43119;BME280;28729;49.838;8.650;2023-02-13T14:05:30;101716.38;;;13.88;55.28
43119;BME280;28729;49.838;8.650;2023-02-13T14:09:40;101710.38;;;13.91;55.47
43119;BME280;28729;49.838;8.650;2023-02-13T14:13:43;101707.28;;;13.81;55.79
43119;BME280;28729;49.838;8.650;2023-02-13T14:17:50;101705.94;;;13.58;56.44
43119;BME280;28729;49.838;8.650;2023-02-13T14:21:53;101700.25;;;13.47;56.89
43119;BME280;28729;49.838;8.650;2023-02-13T14:34:36;101700.75;;;13.37;57.78
43119;BME280;28729;49.838;8.650;2023-02-13T14:38:40;101683.13;;;13.31;57.70
43119;BME280;28729;49.838;8.650;2023-02-13T14:42:45;101691.66;;;13.30;57.63
43119;BME280;28729;49.838;8.650;2023-02-13T14:46:48;101689.75;;;13.30;57.84
43119;BME280;28729;49.838;8.650;2023-02-13T14:50:53;101682.91;;;13.33;58.24
43119;BME280;28729;49.838;8.650;2023-02-13T14:55:02;101689.06;;;13.35;58.32
43119;BME280;28729;49.838;8.650;2023-02-13T14:59:15;101689.69;;;13.37;58.13
43119;BME280;28729;49.838;8.650;2023-02-13T15:07:37;101678.69;;;13.55;58.28
43119;BME280;28729;49.838;8.650;2023-02-13T15:11:45;101673.97;;;13.62;58.12
43119;BME280;28729;49.838;8.650;2023-02-13T15:15:55;101668.50;;;13.49;58.30
43119;BME280;28729;49.838;8.650;2023-02-13T15:24:13;101668.25;;;13.26;59.23
43119;BME280;28729;49.838;8.650;2023-02-13T15:28:18;101671.66;;;13.14;59.33
43119;BME280;28729;49.838;8.650;2023-02-13T15:32:27;101680.25;;;13.06;59.96
43119;BME280;28729;49.838;8.650;2023-02-13T15:36:38;101681.59;;;12.97;60.58
43119;BME280;28729;49.838;8.650;2023-02-13T15:40:40;101675.69;;;12.80;60.86
43119;BME280;28729;49.838;8.650;2023-02-13T15:44:46;101675.72;;;12.67;61.35
43119;BME280;28729;49.838;8.650;2023-02-13T15:48:49;101671.09;;;12.54;61.86
43119;BME280;28729;49.838;8.650;2023-02-13T15:52:51;101658.81;;;12.37;62.11
43119;BME280;28729;49.838;8.650;2023-02-13T15:56:56;101667.56;;;12.20;62.81
43119;BME280;28729;49.838;8.650;2023-02-13T16:01:03;101671.00;;;12.02;63.78
43119;BME280;28729;49.838;8.650;2023-02-13T16:05:10;101668.00;;;11.84;64.69
43119;BME280;28729;49.838;8.650;2023-02-13T16:09:23;101661.41;;;11.65;65.34
43119;BME280;28729;49.838;8.650;2023-02-13T16:18:20;101657.97;;;11.23;67.09
43119;BME280;28729;49.838;8.650;2023-02-13T16:22:29;101660.47;;;11.05;68.37
43119;BME280;28729;49.838;8.650;2023-02-13T16:26:33;101656.34;;;10.81;69.13
43119;BME280;28729;49.838;8.650;2023-02-13T16:30:45;101663.44;;;10.55;70.04
43119;BME280;28729;49.838;8.650;2023-02-13T16:34:48;101662.72;;;10.33;71.04
43119;BME280;28729;49.838;8.650;2023-02-13T16:38:51;101669.91;;;10.06;71.85
43119;BME280;28729;49.838;8.650;2023-02-13T16:42:52;101669.50;;;9.81;72.92
43119;BME280;28729;49.838;8.650;2023-02-13T16:50:57;101667.66;;;9.39;74.68
43119;BME280;28729;49.838;8.650;2023-02-13T16:55:00;101668.31;;;9.19;76.00
43119;BME280;28729;49.838;8.650;2023-02-13T17:03:23;101679.59;;;8.88;77.27
43119;BME280;28729;49.838;8.650;2023-02-13T17:07:29;101693.56;;;8.72;78.30
43119;BME280;28729;49.838;8.650;2023-02-13T17:11:31;101687.19;;;8.56;79.12
43119;BME280;28729;49.838;8.650;2023-02-13T17:15:33;101687.88;;;8.43;79.75
43119;BME280;28729;49.838;8.650;2023-02-13T17:19:35;101694.66;;;8.33;80.35
43119;BME280;28729;49.838;8.650;2023-02-13T17:23:36;101700.91;;;8.27;80.96
43119;BME280;28729;49.838;8.650;2023-02-13T17:27:38;101709.63;;;8.15;81.67
43119;BME280;28729;49.838;8.650;2023-02-13T17:31:40;101708.72;;;8.00;82.22
43119;BME280;28729;49.838;8.650;2023-02-13T17:35:42;101716.41;;;7.90;83.32
43119;BME280;28729;49.838;8.650;2023-02-13T17:39:45;101717.88;;;7.78;83.83
43119;BME280;28729;49.838;8.650;2023-02-13T17:43:46;101717.94;;;7.69;84.61
43119;BME280;28729;49.838;8.650;2023-02-13T17:47:48;101728.59;;;7.64;85.49
43119;BME280;28729;49.838;8.650;2023-02-13T17:51:50;101718.56;;;7.57;86.09
43119;BME280;28729;49.838;8.650;2023-02-13T17:55:51;101719.66;;;7.47;86.94
43119;BME280;28729;49.838;8.650;2023-02-13T17:59:53;101716.97;;;7.39;87.51
43119;BME280;28729;49.838;8.650;2023-02-13T18:03:56;101716.84;;;7.33;88.13
43119;BME280;28729;49.838;8.650;2023-02-13T18:07:59;101716.38;;;7.29;88.67
43119;BME280;28729;49.838;8.650;2023-02-13T18:12:03;101721.72;;;7.22;89.41
43119;BME280;28729;49.838;8.650;2023-02-13T18:16:07;101727.06;;;7.16;89.86
43119;BME280;28729;49.838;8.650;2023-02-13T18:20:13;101726.09;;;7.08;90.56
43119;BME280;28729;49.838;8.650;2023-02-13T18:24:15;101723.19;;;7.02;91.22
43119;BME280;28729;49.838;8.650;2023-02-13T18:28:22;101730.09;;;6.98;91.75
43119;BME280;28729;49.838;8.650;2023-02-13T18:32:25;101732.50;;;6.93;92.25
43119;BME280;28729;49.838;8.650;2023-02-13T18:36:27;101729.28;;;6.89;92.69
43119;BME280;28729;49.838;8.650;2023-02-13T18:40:29;101725.19;;;6.85;93.56
43119;BME280;28729;49.838;8.650;2023-02-13T18:44:31;101726.75;;;6.79;94.27
43119;BME280;28729;49.838;8.650;2023-02-13T18:48:32;101722.69;;;6.75;95.56
43119;BME280;28729;49.838;8.650;2023-02-13T18:52:34;101727.97;;;6.77;96.16
43119;BME280;28729;49.838;8.650;2023-02-13T18:56:36;101730.53;;;6.78;97.10
43119;BME280;28729;49.838;8.650;2023-02-13T19:00:38;101723.69;;;6.74;97.74
43119;BME280;28729;49.838;8.650;2023-02-13T19:04:40;101727.69;;;6.64;99.47
43119;BME280;28729;49.838;8.650;2023-02-13T19:08:41;101728.22;;;6.51;100.00
43119;BME280;28729;49.838;8.650;2023-02-13T19:12:43;101734.25;;;6.38;100.00
43119;BME280;28729;49.838;8.650;2023-02-13T19:16:45;101737.22;;;6.28;100.00
43119;BME280;28729;49.838;8.650;2023-02-13T19:20:46;101735.69;;;6.18;99.94
43119;BME280;28729;49.838;8.650;2023-02-13T19:24:48;101727.16;;;6.04;100.00
43119;BME280;28729;49.838;8.650;2023-02-13T19:28:50;101718.41;;;5.92;100.00
43119;BME280;28729;49.838;8.650;2023-02-13T19:32:53;101721.50;;;5.81;100.00
43119;BME280;28729;49.838;8.650;2023-02-13T19:36:54;101727.16;;;5.71;100.00
43119;BME280;28729;49.838;8.650;2023-02-13T19:41:09;101727.66;;;5.67;100.00
43119;BME280;28729;49.838;8.650;2023-02-13T19:45:11;101731.56;;;5.64;100.00
43119;BME280;28729;49.838;8.650;2023-02-13T19:49:13;101734.50;;;5.63;100.00
43119;BME280;28729;49.838;8.650;2023-02-13T19:53:15;101731.91;;;5.61;100.00
43119;BME280;28729;49.838;8.650;2023-02-13T19:57:17;101726.28;;;5.63;100.00
43119;BME280;28729;49.838;8.650;2023-02-13T20:01:20;101730.91;;;5.62;100.00
43119;BME280;28729;49.838;8.650;2023-02-13T20:05:22;101730.56;;;5.57;100.00
43119;BME280;28729;49.838;8.650;2023-02-13T20:09:24;101730.75;;;5.47;100.00
43119;BME280;28729;49.838;8.650;2023-02-13T20:13:26;101728.31;;;5.36;100.00
43119;BME280;28729;49.838;8.650;2023-02-13T20:17:27;101729.00;;;5.30;100.00
43119;BME280;28729;49.838;8.650;2023-02-13T20:21:29;101732.06;;;5.27;100.00
43119;BME280;28729;49.838;8.650;2023-02-13T20:25:31;101731.56;;;5.23;100.00
43119;BME280;28729;49.838;8.650;2023-02-13T20:29:33;101732.56;;;5.22;100.00
43119;BME280;28729;49.838;8.650;2023-02-13T20:33:38;101733.06;;;5.26;100.00
43119;BME280;28729;49.838;8.650;2023-02-13T20:37:40;101731.38;;;5.25;100.00
43119;BME280;28729;49.838;8.650;2023-02-13T20:41:43;101732.41;;;5.24;100.00
43119;BME280;28729;49.838;8.650;2023-02-13T20:45:50;101717.53;;;5.18;100.00
43119;BME280;28729;49.838;8.650;2023-02-13T20:49:52;101733.22;;;5.16;100.00
43119;BME280;28729;49.838;8.650;2023-02-13T20:53:54;101736.47;;;5.12;100.00
43119;BME280;28729;49.838;8.650;2023-02-13T20:57:56;101729.47;;;5.09;100.00
43119;BME280;28729;49.838;8.650;2023-02-13T21:01:57;101728.91;;;5.06;100.00
43119;BME280;28729;49.838;8.650;2023-02-13T21:05:59;101722.28;;;5.00;100.00
43119;BME280;28729;49.838;8.650;2023-02-13T21:10:01;101715.25;;;4.97;100.00
43119;BME280;28729;49.838;8.650;2023-02-13T21:14:03;101709.09;;;4.95;100.00
43119;BME280;28729;49.838;8.650;2023-02-13T21:18:04;101718.00;;;4.97;100.00
43119;BME280;28729;49.838;8.650;2023-02-13T21:22:06;101707.41;;;4.94;100.00
43119;BME280;28729;49.838;8.650;2023-02-13T21:26:14;101711.13;;;4.93;100.00
43119;BME280;28729;49.838;8.650;2023-02-13T21:30:16;101711.47;;;4.90;100.00
43119;BME280;28729;49.838;8.650;2023-02-13T21:34:18;101699.88;;;4.88;100.00
43119;BME280;28729;49.838;8.650;2023-02-13T21:38:20;101703.09;;;4.84;100.00
43119;BME280;28729;49.838;8.650;2023-02-13T21:42:24;101701.91;;;4.86;100.00
43119;BME280;28729;49.838;8.650;2023-02-13T21:46:29;101702.75;;;4.87;100.00
43119;BME280;28729;49.838;8.650;2023-02-13T21:50:31;101697.47;;;4.85;100.00
43119;BME280;28729;49.838;8.650;2023-02-13T21:54:33;101704.78;;;4.85;100.00
43119;BME280;28729;49.838;8.650;2023-02-13T21:58:35;101697.81;;;4.82;100.00
43119;BME280;28729;49.838;8.650;2023-02-13T22:02:37;101697.44;;;4.77;100.00
43119;BME280;28729;49.838;8.650;2023-02-13T22:06:40;101686.34;;;4.78;100.00
43119;BME280;28729;49.838;8.650;2023-02-13T22:10:41;101687.56;;;4.76;100.00
43119;BME280;28729;49.838;8.650;2023-02-13T22:14:43;101680.34;;;4.75;100.00
43119;BME280;28729;49.838;8.650;2023-02-13T22:18:44;101691.63;;;4.72;100.00
43119;BME280;28729;49.838;8.650;2023-02-13T22:22:47;101691.63;;;4.72;100.00
43119;BME280;28729;49.838;8.650;2023-02-13T22:26:48;101699.09;;;4.70;100.00
43119;BME280;28729;49.838;8.650;2023-02-13T22:30:50;101699.63;;;4.65;100.00
43119;BME280;28729;49.838;8.650;2023-02-13T22:34:52;101699.09;;;4.62;100.00
43119;BME280;28729;49.838;8.650;2023-02-13T22:38:54;101693.28;;;4.56;100.00
43119;BME280;28729;49.838;8.650;2023-02-13T22:42:56;101698.22;;;4.53;100.00
43119;BME280;28729;49.838;8.650;2023-02-13T22:46:57;101695.97;;;4.48;100.00
43119;BME280;28729;49.838;8.650;2023-02-13T22:51:07;101698.50;;;4.42;100.00
43119;BME280;28729;49.838;8.650;2023-02-13T22:55:10;101707.88;;;4.39;100.00
43119;BME280;28729;49.838;8.650;2023-02-13T22:59:12;101706.50;;;4.35;100.00
43119;BME280;28729;49.838;8.650;2023-02-13T23:03:14;101705.63;;;4.34;100.00
43119;BME280;28729;49.838;8.650;2023-02-13T23:07:16;101701.34;;;4.32;100.00
43119;BME280;28729;49.838;8.650;2023-02-13T23:11:19;101693.81;;;4.26;100.00
43119;BME280;28729;49.838;8.650;2023-02-13T23:15:39;101696.88;;;4.23;100.00
43119;BME280;28729;49.838;8.650;2023-02-13T23:19:41;101703.66;;;4.19;100.00
43119;BME280;28729;49.838;8.650;2023-02-13T23:23:42;101699.88;;;4.11;100.00
43119;BME280;28729;49.838;8.650;2023-02-13T23:27:44;101698.78;;;4.04;100.00